首页
METAR-TAF:

METAR-TAF

机场 :

永珍, 老挝

瓦岱國際機場

纬度: 17-57N, 经度: 102-34E, 海拔: 171米

当前天气观测

该预报发布于21分钟前的05:30 UTC
风速4节,风向西北
温度 32°C
湿度 56%
气压 1012 hPa
能見度: 7000
少量云层高于2000英尺
少量云层高于20000英尺

METAR: VLVT 250530Z 32004KT 7000 FEW020 FEW200 32/22 Q1012 NOSIG

时间: 12:51 (05:51 UTC)

预报

该预报发布于51分钟前的05:00 UTC
预报有效从25日的 06点(UTC)到 26日的 06点(UTC)
风速4节,风向西北
能見度: 7000
少量云层高于2000英尺
少量云层高于20000英尺
短暂存在
从 25日的 14点(UTC)到 25日的 20点(UTC)
能見度: 4000
散云层高于5000英尺
少量云层高于20000英尺
轻雾

TAF: VLVT 250500Z 2506/2606 32004KT 7000 FEW020 FEW200 TEMPO 2514/2520 4000 BR SCT050 FEW200

超过4000个机场的气象观测和天气预报(METAR&TAF报告)。

可查询的气象台以黄色和红色小点在地图上表示。

将鼠标移到小点上方,可查看气象台名称。

然后点击查看天气观测和预报。

如需切换地图:点击带黑十字的绿色按钮放大地图;点击带横线的绿色按钮缩小地图;或者点击绿色箭头查看邻近地区的地图。


METAR-TAF: